Terminal Aerodrome Forecast
Issued by NWS

Home | Current Version | Previous Version | Text Only | Print | Product List | Glossary On
Versions: 1 2 3 4 5 6 7 8 9 10 11 12 13 14 15 16 17 18 19 20 21 22 23 24
000
FTUS43 KEAX 180500
TAFMKC
TAF
KMKC 180520Z 1806/1906 09003KT 5SM BR SCT006
     FM180800 09005KT 3SM BR OVC006
     FM181000 09004KT 2SM BR OVC005
     FM181400 09005KT 3SM BR OVC008
     FM181800 10008KT P6SM SCT025
     FM190000 09005KT P6SM BKN025=

USA.gov is the U.S. government's official web portal to all federal, state and local government web resources and services.